»·PEaware :: UAL1399 KTVL-KSMF

UAL1399 :: KTVL-KSMF

FLIGHT INFORMATION

Flight Status: Arrived
Operator:
United Airlines
More flights by this operator :: More flights under this callsign
Pilot: David C. (16084)
Aircraft: SAAB 340
(SF34)
More flights by this aircraft type
Origin: KTVL Lake Tahoe
United States
Destination: KSMF Sacramento Intl
United States
More flights between these airports :: More routes between these airports
Route: RICHY6 SWR SLMMR SLMMR3
File this flight plan on PilotEdge
Remarks:
Altitude:
(Current/Filed)
16,000ft
Speed:
(Current/Filed)
284kts
Departed: 11-Jul-18 10:59 AM
Arrived: 11-Jul-18 11:26 AM
Distance/Time
Traveled:
76nm/0:27
Distance/Time
To Go:
Arrived

Flight Plot

Page will automatically refresh every two minutes.

Flight plan parsing failed; only flown route is shown


Map Options




Map Legend


Flown Route
Filed Route
Departure Airport
Arrival Airport
Navaid (VOR, NDB)
Fix

Horizontal Profiles

Position Reports

Time Latitude Longitude Heading Altitude Ground
Speed
11-Jul-18 10:32 38.892276 -119.998177 26 6269ft 0kts
11-Jul-18 10:33 38.892276 -119.998177 26 6269ft 0kts
11-Jul-18 10:34 38.892276 -119.998177 26 6269ft 0kts
11-Jul-18 10:35 38.892276 -119.998177 26 6269ft 0kts
11-Jul-18 10:36 38.892276 -119.998177 26 6269ft 0kts
11-Jul-18 10:37 38.892276 -119.998177 26 6269ft 0kts
11-Jul-18 10:38 38.892276 -119.998177 26 6269ft 0kts
11-Jul-18 10:39 38.892276 -119.998177 26 6269ft 0kts
11-Jul-18 10:40 38.892276 -119.998177 26 6269ft 0kts
11-Jul-18 10:41 38.892276 -119.998177 26 6269ft 0kts
11-Jul-18 10:42 38.892276 -119.998177 26 6269ft 0kts
11-Jul-18 10:43 38.892276 -119.998177 26 6269ft 0kts
11-Jul-18 10:44 38.892276 -119.998177 26 6269ft 0kts
11-Jul-18 10:45 38.892276 -119.998177 26 6269ft 0kts
11-Jul-18 10:46 38.892276 -119.998177 26 6269ft 0kts
11-Jul-18 10:47 38.892276 -119.998177 26 6269ft 0kts
11-Jul-18 10:48 38.892276 -119.998177 26 6269ft 0kts
11-Jul-18 10:49 38.892276 -119.998177 26 6269ft 0kts
11-Jul-18 10:50 38.892276 -119.998177 26 6269ft 0kts
11-Jul-18 10:51 38.892276 -119.998177 26 6269ft 0kts
11-Jul-18 10:52 38.892276 -119.998177 26 6269ft 0kts
11-Jul-18 10:53 38.892276 -119.998177 26 6269ft 0kts
11-Jul-18 10:54 38.892329 -119.997042 127 6269ft 10kts
11-Jul-18 10:55 38.887314 -119.998305 191 6269ft 25kts
11-Jul-18 10:56 38.882940 -119.999536 172 6269ft 0kts
11-Jul-18 10:57 38.882940 -119.999536 172 6269ft 0kts
11-Jul-18 10:58 38.882940 -119.999536 172 6269ft 0kts
11-Jul-18 10:59 38.883293 -119.998476 14 6269ft 14kts
11-Jul-18 11:00 38.916580 -119.992511 341 7128ft 185kts
11-Jul-18 11:01 38.961973 -120.029625 343 9044ft 204kts
11-Jul-18 11:02 39.013061 -120.061290 323 10939ft 203kts
11-Jul-18 11:03 39.056612 -120.107154 313 12679ft 204kts
11-Jul-18 11:04 39.098514 -120.157132 309 14179ft 207kts
11-Jul-18 11:05 39.120434 -120.218828 260 15493ft 199kts
11-Jul-18 11:06 39.113619 -120.293539 259 15998ft 230kts
11-Jul-18 11:07 39.105194 -120.379573 259 15979ft 251kts
11-Jul-18 11:08 39.096239 -120.469557 259 15972ft 257kts
11-Jul-18 11:09 39.087029 -120.561300 259 15968ft 259kts
11-Jul-18 11:10 39.077703 -120.653421 259 15968ft 260kts
11-Jul-18 11:11 39.060194 -120.742439 249 15676ft 258kts
11-Jul-18 11:12 39.038922 -120.825051 248 14229ft 233kts
11-Jul-18 11:13 39.018782 -120.902405 248 12799ft 228kts
11-Jul-18 11:14 38.997791 -120.982513 248 11402ft 243kts
11-Jul-18 11:15 38.975354 -121.065008 249 9995ft 247kts
11-Jul-18 11:16 38.954111 -121.149145 249 8579ft 247kts
11-Jul-18 11:17 38.932291 -121.231720 249 7155ft 240kts
11-Jul-18 11:18 38.911218 -121.311184 249 5728ft 226kts
11-Jul-18 11:19 38.892184 -121.382770 249 4314ft 207kts
11-Jul-18 11:20 38.872896 -121.446951 249 2993ft 192kts
11-Jul-18 11:21 38.856002 -121.507947 250 1716ft 168kts
11-Jul-18 11:22 38.842287 -121.557540 250 1694ft 160kts
11-Jul-18 11:23 38.818258 -121.599173 181 1692ft 145kts
11-Jul-18 11:24 38.777858 -121.599836 180 1428ft 141kts
11-Jul-18 11:25 38.737826 -121.600539 180 665ft 137kts
11-Jul-18 11:26 38.700958 -121.601142 181 31ft 117kts
11-Jul-18 11:27 38.690591 -121.600257 85 30ft 0kts
11-Jul-18 11:28 38.695754 -121.598674 0 30ft 25kts
11-Jul-18 11:29 38.696550 -121.593607 181 30ft 13kts
11-Jul-18 11:30 38.696164 -121.593613 180 30ft 0kts
11-Jul-18 11:31 38.696164 -121.593613 180 30ft 0kts
11-Jul-18 11:32 38.696164 -121.593613 180 30ft 0kts

Navigation Log

Ident Type
Flight plan parsing failed, navigation log unavailable